createdAt,value
2023-03-16T00:00:57.118Z,3.20
2023-03-16T00:03:25.000Z,3.00
2023-03-16T00:05:53.974Z,3.10
2023-03-16T00:08:21.795Z,2.90
2023-03-16T00:10:49.749Z,3.00
2023-03-16T00:13:19.322Z,3.10
2023-03-16T00:15:51.082Z,3.20
2023-03-16T00:18:18.891Z,3.10
2023-03-16T00:20:46.687Z,3.00
2023-03-16T00:23:14.496Z,3.00
2023-03-16T00:25:42.336Z,3.00
2023-03-16T00:28:10.169Z,2.90
2023-03-16T00:30:39.328Z,3.00
2023-03-16T00:33:07.245Z,2.90
2023-03-16T00:35:35.172Z,2.90
2023-03-16T00:38:03.981Z,3.00
2023-03-16T00:40:33.902Z,3.00
2023-03-16T00:43:01.705Z,2.90
2023-03-16T00:45:29.730Z,2.90
2023-03-16T00:47:58.928Z,2.90
2023-03-16T00:50:27.190Z,3.00
2023-03-16T00:52:55.430Z,3.00
2023-03-16T00:55:23.283Z,2.90
2023-03-16T00:57:51.082Z,2.90
2023-03-16T01:00:20.891Z,2.80
2023-03-16T01:02:48.821Z,2.80
2023-03-16T01:05:19.006Z,2.80
2023-03-16T01:07:46.782Z,2.90
2023-03-16T01:10:14.935Z,2.80
2023-03-16T01:12:45.503Z,2.90
2023-03-16T01:15:13.472Z,2.80
2023-03-16T01:17:41.769Z,2.80
2023-03-16T01:20:15.435Z,3.00
2023-03-16T01:22:44.551Z,2.90
2023-03-16T01:25:12.495Z,3.30
2023-03-16T01:27:40.269Z,3.10
2023-03-16T01:30:12.280Z,3.10
2023-03-16T01:32:40.509Z,3.00
2023-03-16T01:35:09.236Z,2.90
2023-03-16T01:37:37.035Z,2.80
2023-03-16T01:40:07.783Z,2.70
2023-03-16T01:42:45.411Z,2.70
2023-03-16T01:45:46.709Z,2.80
2023-03-16T01:48:14.561Z,2.60
2023-03-16T01:50:42.453Z,2.40
2023-03-16T01:53:10.481Z,2.20
2023-03-16T01:55:39.625Z,2.30
2023-03-16T01:58:07.418Z,2.40
2023-03-16T02:00:35.214Z,2.40
2023-03-16T02:03:06.110Z,2.30
2023-03-16T02:05:34.809Z,2.20
2023-03-16T02:08:02.681Z,2.10
2023-03-16T02:10:30.935Z,2.00
2023-03-16T02:13:00.758Z,2.10
2023-03-16T02:15:28.607Z,2.10
2023-03-16T02:17:57.747Z,2.00
2023-03-16T02:20:30.611Z,2.10
2023-03-16T02:22:58.496Z,2.00
2023-03-16T02:25:29.977Z,2.00
2023-03-16T02:28:02.289Z,1.90
2023-03-16T02:30:31.582Z,1.90
2023-03-16T02:32:59.466Z,1.80
2023-03-16T02:35:27.300Z,1.90
2023-03-16T02:37:55.086Z,1.80
2023-03-16T02:40:24.322Z,1.80
2023-03-16T02:42:55.090Z,1.70
2023-03-16T02:45:23.027Z,1.80
2023-03-16T02:47:52.399Z,1.70
2023-03-16T02:50:20.486Z,1.70
2023-03-16T02:52:49.269Z,1.70
2023-03-16T02:55:17.083Z,1.70
2023-03-16T02:57:44.918Z,1.70
2023-03-16T03:00:16.908Z,1.60
2023-03-16T03:02:44.793Z,1.60
2023-03-16T03:05:14.062Z,1.50
2023-03-16T03:07:42.101Z,1.30
2023-03-16T03:10:11.023Z,1.30
2023-03-16T03:12:38.845Z,1.30
2023-03-16T03:15:07.856Z,1.30
2023-03-16T03:17:37.437Z,1.20
2023-03-16T03:20:07.921Z,1.20
2023-03-16T03:22:37.135Z,1.10
2023-03-16T03:25:05.157Z,1.10
2023-03-16T03:27:33.466Z,1.10
2023-03-16T03:30:01.567Z,1.10
2023-03-16T03:32:29.447Z,1.00
2023-03-16T03:34:57.775Z,1.10
2023-03-16T03:37:25.606Z,1.00
2023-03-16T03:39:54.756Z,1.00
2023-03-16T03:42:23.839Z,1.10
2023-03-16T03:44:52.119Z,1.10
2023-03-16T03:47:19.960Z,1.00
2023-03-16T03:49:47.916Z,1.00
2023-03-16T03:52:15.741Z,0.90
2023-03-16T03:54:43.562Z,0.90
2023-03-16T03:57:12.717Z,0.90
2023-03-16T03:59:43.693Z,0.90
2023-03-16T04:02:11.897Z,0.90
2023-03-16T04:04:40.215Z,1.00
2023-03-16T04:07:08.088Z,0.90
2023-03-16T04:09:36.182Z,0.80
2023-03-16T04:12:04.792Z,0.70
2023-03-16T04:14:33.983Z,0.70
2023-03-16T04:17:01.987Z,0.80
2023-03-16T04:19:29.856Z,0.90
2023-03-16T04:21:58.027Z,0.80
2023-03-16T04:24:25.897Z,0.80
2023-03-16T04:26:54.521Z,0.70
2023-03-16T04:29:22.405Z,0.70
2023-03-16T04:31:53.802Z,0.60
2023-03-16T04:34:24.821Z,0.50
2023-03-16T04:36:53.131Z,0.50
2023-03-16T04:39:21.106Z,0.50
2023-03-16T04:41:48.929Z,0.50
2023-03-16T04:44:17.320Z,0.40
2023-03-16T04:46:45.189Z,0.40
2023-03-16T04:49:14.428Z,0.40
2023-03-16T04:51:42.565Z,0.40
2023-03-16T04:54:11.345Z,0.30
2023-03-16T04:56:41.432Z,0.30
2023-03-16T04:59:09.307Z,0.20
2023-03-16T05:01:38.247Z,0.20
2023-03-16T05:04:06.371Z,0.20
2023-03-16T05:06:35.520Z,0.20
2023-03-16T05:09:05.769Z,0.10
2023-03-16T05:11:33.571Z,0.00
2023-03-16T05:14:02.068Z,0.10
2023-03-16T05:16:30.115Z,0.10
2023-03-16T05:18:59.458Z,0.10
2023-03-16T05:21:27.385Z,0.10
2023-03-16T05:23:56.538Z,0.10
2023-03-16T05:26:25.469Z,0.10
2023-03-16T05:28:53.330Z,0.10
2023-03-16T05:31:21.215Z,0.10
2023-03-16T05:33:49.254Z,0.10
2023-03-16T05:36:17.527Z,0.10
2023-03-16T05:38:45.643Z,0.10
2023-03-16T05:41:14.920Z,0.20
2023-03-16T05:43:43.610Z,0.20
2023-03-16T05:46:11.488Z,0.20
2023-03-16T05:48:39.540Z,0.10
2023-03-16T05:51:07.581Z,0.20
2023-03-16T05:53:35.502Z,0.20
2023-03-16T05:56:03.423Z,0.20
2023-03-16T05:58:33.913Z,0.20
2023-03-16T06:01:02.378Z,0.20
2023-03-16T06:03:31.370Z,0.30
2023-03-16T06:05:59.197Z,0.30
2023-03-16T06:08:27.355Z,0.40
2023-03-16T06:10:55.187Z,0.40
2023-03-16T06:13:23.009Z,0.40
2023-03-16T06:15:52.223Z,0.70
2023-03-16T06:18:20.084Z,0.60
2023-03-16T06:20:48.144Z,0.60
2023-03-16T06:23:15.959Z,0.50
2023-03-16T06:25:44.095Z,0.60
2023-03-16T06:28:11.976Z,0.60
2023-03-16T06:30:40.305Z,0.60
2023-03-16T06:33:09.543Z,0.50
2023-03-16T06:35:37.773Z,0.50
2023-03-16T06:38:05.602Z,0.70
2023-03-16T06:40:33.500Z,0.90
2023-03-16T06:43:02.118Z,1.30
2023-03-16T06:45:30.021Z,1.50
2023-03-16T06:47:57.857Z,1.70
2023-03-16T06:50:27.343Z,1.70
2023-03-16T06:52:55.338Z,1.50
2023-03-16T06:55:23.184Z,1.60
2023-03-16T06:57:51.834Z,1.50
2023-03-16T07:00:20.346Z,1.60
2023-03-16T07:02:48.159Z,1.70
2023-03-16T07:05:15.992Z,2.00
2023-03-16T07:07:45.508Z,2.10
2023-03-16T07:10:15.012Z,2.40
2023-03-16T07:12:43.240Z,2.40
2023-03-16T07:15:11.816Z,2.50
2023-03-16T07:17:39.641Z,2.70
2023-03-16T07:20:10.564Z,2.90
2023-03-16T07:22:38.584Z,2.90
2023-03-16T07:25:08.988Z,3.00
2023-03-16T07:27:36.845Z,3.30
2023-03-16T07:30:05.760Z,3.50
2023-03-16T07:32:33.713Z,3.80
2023-03-16T07:35:02.124Z,3.70
2023-03-16T07:37:29.956Z,3.70
2023-03-16T07:39:57.777Z,4.00
2023-03-16T07:42:27.003Z,4.20
2023-03-16T07:44:54.851Z,4.30
2023-03-16T07:47:25.919Z,4.90
2023-03-16T07:49:54.215Z,5.10
2023-03-16T07:52:22.039Z,5.70
2023-03-16T07:54:49.913Z,6.00
2023-03-16T07:57:17.729Z,6.20
2023-03-16T07:59:46.946Z,6.70
2023-03-16T08:02:15.441Z,7.00
2023-03-16T08:04:43.465Z,7.20
2023-03-16T08:07:11.344Z,7.20
2023-03-16T08:09:39.282Z,7.40
2023-03-16T08:12:08.359Z,7.60
2023-03-16T08:14:36.761Z,7.60
2023-03-16T08:17:07.235Z,8.00
2023-03-16T08:19:35.095Z,8.20
2023-03-16T08:22:03.638Z,8.30
2023-03-16T08:24:31.525Z,9.00
2023-03-16T08:26:59.391Z,9.70
2023-03-16T08:29:27.398Z,9.80
2023-03-16T08:31:56.341Z,9.70
2023-03-16T08:34:26.711Z,9.70
2023-03-16T08:36:55.312Z,9.70
2023-03-16T08:39:23.152Z,9.90
2023-03-16T08:41:51.082Z,10.10
2023-03-16T08:44:19.090Z,10.30
2023-03-16T08:46:46.948Z,10.40
2023-03-16T08:49:14.870Z,10.20
2023-03-16T08:51:45.085Z,10.00
2023-03-16T08:54:13.226Z,10.10
2023-03-16T08:56:41.049Z,9.80
2023-03-16T08:59:16.781Z,9.40
2023-03-16T09:01:51.348Z,9.70
2023-03-16T09:04:21.454Z,10.40
2023-03-16T09:07:05.892Z,10.80
2023-03-16T09:09:35.930Z,11.10
2023-03-16T09:12:04.202Z,11.20
2023-03-16T09:14:32.190Z,11.30
2023-03-16T09:17:00.060Z,11.60
2023-03-16T09:19:30.672Z,11.60
2023-03-16T09:22:04.063Z,11.70
2023-03-16T09:24:31.973Z,11.80
2023-03-16T09:26:59.996Z,12.00
2023-03-16T09:29:27.934Z,12.50
2023-03-16T09:31:55.943Z,12.20
2023-03-16T09:36:56.578Z,12.10
2023-03-16T09:39:26.040Z,11.70
2023-03-16T09:41:55.606Z,11.90
2023-03-16T09:44:29.203Z,12.00
2023-03-16T09:46:57.712Z,12.30
2023-03-16T09:49:27.594Z,12.50
2023-03-16T09:51:59.004Z,12.40
2023-03-16T09:54:32.877Z,12.50
2023-03-16T09:57:01.427Z,13.00
2023-03-16T09:59:29.234Z,12.80
2023-03-16T10:02:06.903Z,13.20
2023-03-16T10:04:41.677Z,13.10
2023-03-16T10:07:20.013Z,13.20
2023-03-16T10:09:51.144Z,12.90
2023-03-16T10:12:19.002Z,13.10
2023-03-16T10:14:48.177Z,13.20
2023-03-16T10:17:17.904Z,13.20
2023-03-16T10:19:48.973Z,13.70
2023-03-16T10:22:21.864Z,13.70
2023-03-16T10:24:59.026Z,13.10
2023-03-16T10:27:29.623Z,13.40
2023-03-16T10:29:57.455Z,13.80
2023-03-16T10:32:29.542Z,13.50
2023-03-16T10:35:01.432Z,13.70
2023-03-16T10:37:30.862Z,13.10
2023-03-16T10:40:00.747Z,13.80
2023-03-16T10:42:28.710Z,13.80
2023-03-16T10:45:01.870Z,13.90
2023-03-16T10:47:32.267Z,14.00
2023-03-16T10:50:00.672Z,14.70
2023-03-16T10:52:33.084Z,14.90
2023-03-16T10:55:04.293Z,14.80
2023-03-16T10:57:33.590Z,15.20
2023-03-16T11:00:07.132Z,14.80
2023-03-16T11:02:35.555Z,15.00
2023-03-16T11:05:14.046Z,15.10
2023-03-16T11:07:48.857Z,15.20
2023-03-16T11:10:27.711Z,14.70
2023-03-16T11:12:57.594Z,14.70
2023-03-16T11:15:28.549Z,14.50
2023-03-16T11:17:56.376Z,14.20
2023-03-16T11:20:26.453Z,14.40
2023-03-16T11:22:54.410Z,14.20
2023-03-16T11:25:28.657Z,14.50
2023-03-16T11:27:59.739Z,14.00
2023-03-16T11:30:30.943Z,14.20
2023-03-16T11:33:00.510Z,14.20
2023-03-16T11:35:31.905Z,14.00
2023-03-16T11:38:07.000Z,14.30
2023-03-16T11:40:42.136Z,14.30
2023-03-16T11:43:19.988Z,14.70
2023-03-16T11:45:50.128Z,14.20
2023-03-16T11:48:23.802Z,14.50
2023-03-16T11:50:58.615Z,14.40
2023-03-16T11:53:36.978Z,14.30
2023-03-16T11:56:11.676Z,14.20
2023-03-16T11:58:50.757Z,14.10
2023-03-16T12:01:19.592Z,14.50
2023-03-16T12:04:23.620Z,14.70
2023-03-16T12:07:00.986Z,14.60
2023-03-16T12:09:58.452Z,14.30
2023-03-16T12:12:35.562Z,14.40
2023-03-16T12:15:11.163Z,14.90
2023-03-16T12:17:38.982Z,15.00
2023-03-16T12:20:10.657Z,14.60
2023-03-16T12:22:39.506Z,14.40
2023-03-16T12:25:14.768Z,14.30
2023-03-16T12:27:43.984Z,14.30
2023-03-16T12:30:25.808Z,14.40
2023-03-16T12:32:55.943Z,14.40
2023-03-16T12:35:29.217Z,14.20
2023-03-16T12:38:02.916Z,14.60
2023-03-16T12:40:34.823Z,15.00
2023-03-16T12:43:14.563Z,14.80
2023-03-16T12:45:44.548Z,14.90
2023-03-16T12:48:17.136Z,14.70
2023-03-16T12:50:51.978Z,14.40
2023-03-16T12:53:28.492Z,14.80
2023-03-16T12:55:57.972Z,14.50
2023-03-16T12:58:27.587Z,14.30
2023-03-16T13:00:59.359Z,14.60
2023-03-16T13:03:27.756Z,14.90
2023-03-16T13:05:56.850Z,14.60
2023-03-16T13:08:27.729Z,14.80
2023-03-16T13:11:03.303Z,15.00
2023-03-16T13:13:32.820Z,14.70
2023-03-16T13:16:09.338Z,14.70
2023-03-16T13:18:39.185Z,14.30
2023-03-16T13:21:18.746Z,14.00
2023-03-16T13:23:55.530Z,14.20
2023-03-16T13:26:40.670Z,14.20
2023-03-16T13:29:22.221Z,14.50
2023-03-16T13:31:50.119Z,14.20
2023-03-16T13:34:21.708Z,14.30
2023-03-16T13:36:50.064Z,14.40
2023-03-16T13:39:19.770Z,14.20
2023-03-16T13:41:57.261Z,13.90
2023-03-16T13:44:26.559Z,14.20
2023-03-16T13:46:54.719Z,14.10
2023-03-16T13:49:22.553Z,13.90
2023-03-16T13:51:50.386Z,14.10
2023-03-16T13:54:23.528Z,13.90
2023-03-16T13:56:52.204Z,14.00
2023-03-16T13:59:21.812Z,13.90
2023-03-16T14:01:57.939Z,14.20
2023-03-16T14:04:26.533Z,13.90
2023-03-16T14:06:56.177Z,13.90
2023-03-16T14:09:27.303Z,14.20
2023-03-16T14:11:56.135Z,14.20
2023-03-16T14:14:29.213Z,14.40
2023-03-16T14:17:05.360Z,14.50
2023-03-16T14:19:42.302Z,14.20
2023-03-16T14:22:17.638Z,13.70
2023-03-16T14:24:46.144Z,13.70
2023-03-16T14:27:19.925Z,13.80
2023-03-16T14:29:52.125Z,13.80
2023-03-16T14:32:28.365Z,14.20
2023-03-16T14:35:04.120Z,14.10
2023-03-16T14:37:38.358Z,13.80
2023-03-16T14:40:07.793Z,13.80
2023-03-16T14:42:35.828Z,13.50
2023-03-16T14:45:07.475Z,13.70
2023-03-16T14:47:41.055Z,13.70
2023-03-16T14:50:10.443Z,13.80
2023-03-16T14:52:47.155Z,13.40
2023-03-16T14:55:16.349Z,13.50
2023-03-16T14:57:45.210Z,13.50
2023-03-16T15:00:15.391Z,13.20
2023-03-16T15:02:45.711Z,13.40
2023-03-16T15:05:20.813Z,13.30
2023-03-16T15:07:54.912Z,13.30
2023-03-16T15:10:24.488Z,13.70
2023-03-16T15:12:54.576Z,13.40
2023-03-16T15:15:23.891Z,13.50
2023-03-16T15:17:53.557Z,13.50
2023-03-16T15:20:24.241Z,13.40
2023-03-16T15:22:52.856Z,13.50
2023-03-16T15:25:25.671Z,13.40
2023-03-16T15:27:53.845Z,13.30
2023-03-16T15:30:22.844Z,13.40
2023-03-16T15:32:50.692Z,12.90
2023-03-16T15:35:20.528Z,13.00
2023-03-16T15:37:48.565Z,12.80
2023-03-16T15:40:18.476Z,12.70
2023-03-16T15:42:46.986Z,12.70
2023-03-16T15:45:17.470Z,13.00
2023-03-16T15:47:45.364Z,12.80
2023-03-16T15:50:13.729Z,12.70
2023-03-16T15:52:43.725Z,12.70
2023-03-16T15:55:17.348Z,12.60
2023-03-16T15:57:46.334Z,12.40
2023-03-16T16:00:30.673Z,12.00
2023-03-16T16:02:59.164Z,12.30
2023-03-16T16:05:27.331Z,12.30
2023-03-16T16:07:56.563Z,12.10
2023-03-16T16:10:24.801Z,11.90
2023-03-16T16:12:52.865Z,11.70
2023-03-16T16:15:23.132Z,11.80
2023-03-16T16:18:18.630Z,11.50
2023-03-16T16:20:39.034Z,11.50
2023-03-16T16:23:10.437Z,11.50
2023-03-16T16:25:40.281Z,11.40
2023-03-16T16:28:12.762Z,11.20
2023-03-16T16:30:40.678Z,11.20
2023-03-16T16:33:24.749Z,11.00
2023-03-16T16:35:52.901Z,11.00
2023-03-16T16:38:22.060Z,10.90
2023-03-16T16:40:50.170Z,10.90
2023-03-16T16:43:31.152Z,10.80
2023-03-16T16:45:59.199Z,10.60
2023-03-16T16:48:31.646Z,10.70
2023-03-16T16:50:59.708Z,10.50
2023-03-16T16:53:28.979Z,10.50
2023-03-16T16:55:57.018Z,10.50
2023-03-16T16:58:25.211Z,10.20
2023-03-16T17:00:54.188Z,9.90
2023-03-16T17:03:24.108Z,9.70
2023-03-16T17:05:52.827Z,10.00
2023-03-16T17:08:20.980Z,10.00
2023-03-16T17:10:50.499Z,9.80
2023-03-16T17:13:27.862Z,9.70
2023-03-16T17:15:55.873Z,9.70
2023-03-16T17:18:24.364Z,9.70
2023-03-16T17:20:52.368Z,9.30
2023-03-16T17:23:26.530Z,9.30
2023-03-16T17:25:56.227Z,9.10
2023-03-16T17:28:26.097Z,9.00
2023-03-16T17:30:53.905Z,9.00
2023-03-16T17:33:21.707Z,8.90
2023-03-16T17:35:49.568Z,9.00
2023-03-16T17:38:21.231Z,8.90
2023-03-16T17:40:49.061Z,8.50
2023-03-16T17:43:18.999Z,8.60
2023-03-16T17:45:47.163Z,8.20
2023-03-16T17:48:16.564Z,8.20
2023-03-16T17:50:46.011Z,8.20
2023-03-16T17:53:13.903Z,8.30
2023-03-16T17:55:42.006Z,8.30
2023-03-16T17:58:17.003Z,8.00
2023-03-16T18:00:49.162Z,8.10
2023-03-16T18:03:17.739Z,8.10
2023-03-16T18:05:45.715Z,8.10
2023-03-16T18:08:16.787Z,7.90
2023-03-16T18:10:45.068Z,8.00
2023-03-16T18:13:18.303Z,7.90
2023-03-16T18:15:48.591Z,7.70
2023-03-16T18:18:18.041Z,7.70
2023-03-16T18:20:46.109Z,7.60
2023-03-16T18:23:16.932Z,7.70
2023-03-16T18:25:44.926Z,7.40
2023-03-16T18:28:13.863Z,7.20
2023-03-16T18:30:42.700Z,7.10
2023-03-16T18:33:18.614Z,7.20
2023-03-16T18:35:46.513Z,7.10
2023-03-16T18:38:20.446Z,7.10
2023-03-16T18:40:48.325Z,7.00
2023-03-16T18:43:16.799Z,6.80
2023-03-16T18:45:45.055Z,6.80
2023-03-16T18:48:19.299Z,6.90
2023-03-16T18:50:47.155Z,6.80
2023-03-16T18:53:16.441Z,7.00
2023-03-16T18:55:45.050Z,6.80
2023-03-16T18:58:16.646Z,6.90
2023-03-16T19:00:45.564Z,7.00
2023-03-16T19:03:20.588Z,6.90
2023-03-16T19:05:48.497Z,7.00
2023-03-16T19:08:16.371Z,6.90
2023-03-16T19:10:47.925Z,6.90
2023-03-16T19:13:19.159Z,6.80
2023-03-16T19:15:47.520Z,6.70
2023-03-16T19:18:16.913Z,6.70
2023-03-16T19:20:47.402Z,6.60
2023-03-16T19:23:20.255Z,6.50
2023-03-16T19:25:48.190Z,6.50
2023-03-16T19:28:17.208Z,6.40
2023-03-16T19:30:46.622Z,6.30
2023-03-16T19:33:23.212Z,6.20
2023-03-16T19:35:52.724Z,6.30
2023-03-16T19:38:20.820Z,6.20
2023-03-16T19:40:49.139Z,6.20
2023-03-16T19:43:18.413Z,6.00
2023-03-16T19:45:46.706Z,6.00
2023-03-16T19:48:15.975Z,6.00
2023-03-16T19:50:45.330Z,6.00
2023-03-16T19:53:17.338Z,6.00
2023-03-16T19:55:45.791Z,5.90
2023-03-16T19:58:19.756Z,5.90
2023-03-16T20:00:47.781Z,5.80
2023-03-16T20:03:15.621Z,5.80
2023-03-16T20:05:44.903Z,5.70
2023-03-16T20:08:22.158Z,5.70
2023-03-16T20:10:50.156Z,5.60
2023-03-16T20:13:18.330Z,5.60
2023-03-16T20:15:46.520Z,5.50
2023-03-16T20:18:15.282Z,5.40
2023-03-16T20:20:44.692Z,5.40
2023-03-16T20:23:18.605Z,5.30
2023-03-16T20:25:47.627Z,5.40
2023-03-16T20:28:19.045Z,5.40
2023-03-16T20:30:47.115Z,5.30
2023-03-16T20:33:18.543Z,5.20
2023-03-16T20:35:49.487Z,5.30
2023-03-16T20:38:17.509Z,5.20
2023-03-16T20:40:46.437Z,5.10
2023-03-16T20:43:32.742Z,5.10
2023-03-16T20:46:01.310Z,5.10
2023-03-16T20:48:32.649Z,4.90
2023-03-16T20:51:01.834Z,5.00
2023-03-16T20:53:29.703Z,5.00
2023-03-16T20:55:57.557Z,4.90
2023-03-16T20:58:26.575Z,4.80
2023-03-16T21:00:57.480Z,4.70
2023-03-16T21:03:26.783Z,4.70
2023-03-16T21:05:55.400Z,4.70
2023-03-16T21:08:24.694Z,4.70
2023-03-16T21:10:53.071Z,4.80
2023-03-16T21:13:22.417Z,4.80
2023-03-16T21:15:51.039Z,4.70
2023-03-16T21:18:19.818Z,4.60
2023-03-16T21:20:48.899Z,4.60
2023-03-16T21:23:17.722Z,4.60
2023-03-16T21:25:48.327Z,4.60
2023-03-16T21:28:16.253Z,4.50
2023-03-16T21:30:45.327Z,4.50
2023-03-16T21:33:22.746Z,4.80
2023-03-16T21:35:50.755Z,4.60
2023-03-16T21:38:19.380Z,4.50
2023-03-16T21:40:48.994Z,4.40
2023-03-16T21:43:17.172Z,4.30
2023-03-16T21:45:45.310Z,4.30
2023-03-16T21:48:15.530Z,4.20
2023-03-16T21:50:44.005Z,4.20
2023-03-16T21:53:23.101Z,4.30
2023-03-16T21:55:53.342Z,4.30
2023-03-16T21:58:21.234Z,4.20
2023-03-16T22:00:49.145Z,4.10
2023-03-16T22:03:23.706Z,4.10
2023-03-16T22:05:51.707Z,4.00
2023-03-16T22:08:20.394Z,4.00
2023-03-16T22:10:48.237Z,4.00
2023-03-16T22:13:19.082Z,4.20
2023-03-16T22:15:48.366Z,3.70
2023-03-16T22:18:28.857Z,3.60
2023-03-16T22:20:56.934Z,3.80
2023-03-16T22:23:29.189Z,3.50
2023-03-16T22:25:57.051Z,3.50
2023-03-16T22:28:27.035Z,3.40
2023-03-16T22:30:55.125Z,3.50
2023-03-16T22:33:28.134Z,3.50
2023-03-16T22:35:56.062Z,3.60
2023-03-16T22:38:23.973Z,3.80
2023-03-16T22:40:52.038Z,3.50
2023-03-16T22:43:29.278Z,3.60
2023-03-16T22:45:59.163Z,3.40
2023-03-16T22:48:28.001Z,3.70
2023-03-16T22:50:55.984Z,3.50
2023-03-16T22:53:26.692Z,3.40
2023-03-16T22:55:55.340Z,3.20
2023-03-16T22:58:28.338Z,3.30
2023-03-16T23:00:56.238Z,3.20
2023-03-16T23:03:25.469Z,3.10
2023-03-16T23:05:53.402Z,3.30
2023-03-16T23:08:22.806Z,3.10
2023-03-16T23:10:51.817Z,3.00
2023-03-16T23:13:21.894Z,2.80
2023-03-16T23:15:51.155Z,3.10
2023-03-16T23:18:19.922Z,3.10
2023-03-16T23:20:49.229Z,3.00
2023-03-16T23:23:17.340Z,3.00
2023-03-16T23:25:46.083Z,2.90
2023-03-16T23:28:21.958Z,2.80
2023-03-16T23:30:49.995Z,2.70
2023-03-16T23:33:17.932Z,2.80
2023-03-16T23:35:46.841Z,2.70
2023-03-16T23:38:16.511Z,2.70
2023-03-16T23:40:44.493Z,2.70
2023-03-16T23:43:12.320Z,2.70
2023-03-16T23:45:42.135Z,2.80
2023-03-16T23:48:13.675Z,2.90
2023-03-16T23:50:41.946Z,3.00
2023-03-16T23:53:12.751Z,2.90
2023-03-16T23:55:42.178Z,2.90
2023-03-16T23:58:10.234Z,2.80
